createdAt,value
2023-04-25T00:02:48.822Z,19.00
2023-04-25T00:07:54.207Z,15.50
2023-04-25T00:12:59.854Z,14.25
2023-04-25T00:18:04.759Z,14.00
2023-04-25T00:23:10.245Z,12.25
2023-04-25T00:28:15.872Z,14.00
2023-04-25T00:33:21.773Z,14.00
2023-04-25T00:38:26.886Z,15.75
2023-04-25T00:43:33.025Z,15.25
2023-04-25T00:48:37.818Z,16.50
2023-04-25T00:53:43.082Z,14.00
2023-04-25T00:58:48.350Z,13.00
2023-04-25T01:03:53.409Z,14.00
2023-04-25T01:08:59.147Z,20.00
2023-04-25T01:14:04.328Z,15.00
2023-04-25T01:19:15.869Z,15.50
2023-04-25T01:24:20.656Z,19.25
2023-04-25T01:29:26.026Z,20.00
2023-04-25T01:34:31.981Z,18.25
2023-04-25T01:39:37.272Z,20.00
2023-04-25T01:44:43.436Z,23.50
2023-04-25T01:49:48.598Z,19.75
2023-04-25T01:54:53.789Z,19.00
2023-04-25T02:00:01.781Z,18.00
2023-04-25T02:05:19.776Z,15.75
2023-04-25T02:10:25.212Z,16.25
2023-04-25T02:15:46.158Z,17.00
2023-04-25T02:20:57.017Z,15.50
2023-04-25T02:26:01.914Z,16.00
2023-04-25T02:31:07.650Z,17.00
2023-04-25T02:36:13.932Z,14.00
2023-04-25T02:41:19.165Z,15.00
2023-04-25T02:46:37.695Z,13.00
2023-04-25T02:51:44.576Z,15.25
2023-04-25T02:56:50.010Z,11.00
2023-04-25T03:02:01.226Z,15.00
2023-04-25T03:07:07.778Z,20.00
2023-04-25T03:12:13.144Z,22.00
2023-04-25T03:17:18.280Z,19.75
2023-04-25T03:22:23.458Z,15.75
2023-04-25T03:27:29.160Z,14.00
2023-04-25T03:32:34.254Z,14.00
2023-04-25T03:37:39.110Z,13.00
2023-04-25T03:42:45.108Z,11.25
2023-04-25T03:47:50.185Z,12.25
2023-04-25T03:52:55.481Z,10.00
2023-04-25T03:58:04.445Z,11.00
2023-04-25T04:03:09.604Z,8.75
2023-04-25T04:08:15.514Z,7.00
2023-04-25T04:13:20.287Z,6.75
2023-04-25T04:18:25.386Z,6.50
2023-04-25T04:23:32.074Z,6.00
2023-04-25T04:28:38.275Z,3.50
2023-04-25T04:33:56.142Z,4.00
2023-04-25T04:39:05.667Z,4.75
2023-04-25T04:44:19.840Z,4.00
2023-04-25T04:49:48.428Z,3.25
2023-04-25T04:55:08.218Z,3.00
2023-04-25T05:00:29.800Z,2.75
2023-04-25T05:06:07.674Z,3.00
2023-04-25T05:11:38.445Z,2.00
2023-04-25T05:17:03.380Z,2.25
2023-04-25T05:22:23.777Z,2.25
2023-04-25T05:27:48.869Z,2.00
2023-04-25T05:33:18.118Z,1.00
2023-04-25T05:38:23.828Z,2.00
2023-04-25T05:43:50.863Z,2.00
2023-04-25T05:49:22.134Z,2.75
2023-04-25T05:54:33.399Z,2.00
2023-04-25T05:59:38.708Z,2.25
2023-04-25T06:04:44.093Z,2.25
2023-04-25T06:09:49.635Z,2.00
2023-04-25T06:14:54.956Z,1.00
2023-04-25T06:19:59.823Z,2.00
2023-04-25T06:25:06.636Z,4.00
2023-04-25T06:30:13.769Z,0.25
2023-04-25T06:35:19.173Z,0.75
2023-04-25T06:40:24.487Z,3.00
2023-04-25T06:45:29.846Z,2.00
2023-04-25T06:50:37.031Z,1.25
2023-04-25T06:55:42.772Z,2.00
2023-04-25T07:00:56.619Z,0.75
2023-04-25T07:06:03.651Z,1.75
2023-04-25T07:11:09.117Z,1.00
2023-04-25T07:16:14.905Z,0.75
2023-04-25T07:21:20.104Z,0.75
2023-04-25T07:26:28.792Z,0.00
2023-04-25T07:31:51.743Z,1.00
2023-04-25T07:36:58.766Z,1.00
2023-04-25T07:42:10.364Z,1.75
2023-04-25T07:47:24.308Z,1.00
2023-04-25T07:52:30.324Z,1.00
2023-04-25T07:57:46.275Z,0.75
2023-04-25T08:02:54.472Z,1.75
2023-04-25T08:07:59.454Z,1.00
2023-04-25T08:13:05.797Z,1.00
2023-04-25T08:18:13.734Z,1.00
2023-04-25T08:23:20.632Z,1.00
2023-04-25T08:28:39.924Z,1.00
2023-04-25T08:33:45.211Z,2.00
2023-04-25T08:39:13.799Z,1.00
2023-04-25T08:44:29.794Z,1.00
2023-04-25T08:49:35.684Z,1.00
2023-04-25T08:54:45.887Z,1.00
2023-04-25T08:59:51.888Z,1.00
2023-04-25T09:04:59.171Z,1.00
2023-04-25T09:10:04.477Z,1.00
2023-04-25T09:15:20.536Z,1.00
2023-04-25T09:25:57.367Z,1.00
2023-04-25T09:31:02.558Z,1.00
2023-04-25T09:36:16.012Z,1.75
2023-04-25T09:41:43.851Z,2.00
2023-04-25T09:46:55.434Z,2.00
2023-04-25T09:52:03.725Z,1.00
2023-04-25T09:57:43.360Z,1.25
2023-04-25T10:02:50.853Z,2.00
2023-04-25T10:08:16.366Z,1.00
2023-04-25T10:13:21.487Z,1.25
2023-04-25T10:18:27.188Z,1.75
2023-04-25T10:23:33.059Z,2.00
2023-04-25T10:28:56.292Z,2.25
2023-04-25T10:34:02.984Z,3.00
2023-04-25T10:39:12.053Z,2.00
2023-04-25T10:44:17.875Z,2.50
2023-04-25T10:49:44.420Z,2.00
2023-04-25T10:54:55.011Z,2.00
2023-04-25T11:00:14.337Z,1.75
2023-04-25T11:05:51.147Z,2.75
2023-04-25T11:11:02.531Z,2.00
2023-04-25T11:16:13.168Z,1.00
2023-04-25T11:21:18.432Z,1.00
2023-04-25T11:26:23.590Z,2.00
2023-04-25T11:31:28.535Z,2.00
2023-04-25T11:36:34.007Z,2.00
2023-04-25T11:41:41.508Z,1.00
2023-04-25T11:46:47.606Z,2.00
2023-04-25T11:51:52.579Z,1.00
2023-04-25T11:56:59.023Z,1.00
2023-04-25T12:02:04.280Z,2.00
2023-04-25T12:07:12.969Z,1.00
2023-04-25T12:12:17.896Z,1.75
2023-04-25T12:17:22.905Z,3.00
2023-04-25T12:22:28.021Z,1.50
2023-04-25T12:27:36.079Z,2.00
2023-04-25T12:32:41.152Z,2.00
2023-04-25T12:37:46.161Z,2.00
2023-04-25T12:42:51.371Z,1.25
2023-04-25T12:47:56.542Z,1.00
2023-04-25T12:53:02.398Z,1.00
2023-04-25T12:58:07.505Z,1.00
2023-04-25T13:03:16.285Z,1.75
2023-04-25T13:08:21.974Z,2.00
2023-04-25T13:13:27.228Z,2.00
2023-04-25T13:18:32.906Z,1.00
2023-04-25T13:23:38.205Z,1.00
2023-04-25T13:28:44.925Z,1.00
2023-04-25T13:33:50.756Z,1.00
2023-04-25T13:38:55.617Z,2.00
2023-04-25T13:44:00.613Z,1.00
2023-04-25T13:49:12.851Z,1.00
2023-04-25T13:54:18.389Z,1.50
2023-04-25T13:59:23.291Z,1.00
2023-04-25T14:04:28.691Z,2.00
2023-04-25T14:09:33.817Z,1.00
2023-04-25T14:14:38.812Z,1.00
2023-04-25T14:19:47.840Z,1.00
2023-04-25T14:24:53.182Z,0.00
2023-04-25T14:29:58.303Z,1.00
2023-04-25T14:35:03.286Z,1.00
2023-04-25T14:40:09.697Z,0.75
2023-04-25T14:45:14.800Z,2.00
2023-04-25T14:50:20.403Z,1.50
2023-04-25T14:55:25.576Z,1.00
2023-04-25T15:00:33.346Z,1.00
2023-04-25T15:05:38.422Z,1.00
2023-04-25T15:10:43.154Z,1.50
2023-04-25T15:15:53.398Z,0.00
2023-04-25T15:20:58.377Z,0.75
2023-04-25T15:26:03.404Z,1.00
2023-04-25T15:31:08.818Z,1.00
2023-04-25T15:36:13.858Z,0.75
2023-04-25T15:41:19.781Z,1.00
2023-04-25T15:46:28.095Z,1.00
2023-04-25T15:51:33.419Z,1.00
2023-04-25T15:56:38.500Z,1.00
2023-04-25T16:01:43.756Z,1.00
2023-04-25T16:06:51.578Z,1.00
2023-04-25T16:11:57.094Z,1.00
2023-04-25T16:17:02.242Z,1.00
2023-04-25T16:22:08.059Z,1.00
2023-04-25T16:27:13.152Z,1.75
2023-04-25T16:32:18.468Z,1.00
2023-04-25T16:37:23.612Z,1.00
2023-04-25T16:42:28.239Z,2.00
2023-04-25T16:47:33.270Z,1.00
2023-04-25T16:52:38.210Z,1.00
2023-04-25T16:57:43.255Z,2.00
2023-04-25T17:02:48.825Z,1.00
2023-04-25T17:07:53.753Z,1.25
2023-04-25T17:12:59.076Z,2.00
2023-04-25T17:18:03.982Z,2.25
2023-04-25T17:23:09.356Z,0.25
2023-04-25T17:28:14.511Z,2.00
2023-04-25T17:33:19.741Z,2.00
2023-04-25T17:38:24.738Z,1.00
2023-04-25T17:43:29.754Z,2.00
2023-04-25T17:48:34.481Z,1.00
2023-04-25T17:53:39.216Z,1.50
2023-04-25T17:58:44.341Z,2.00
2023-04-25T18:03:51.349Z,2.00
2023-04-25T18:08:57.440Z,3.00
2023-04-25T18:14:02.397Z,1.00
2023-04-25T18:19:12.826Z,0.75
2023-04-25T18:24:19.163Z,1.50
2023-04-25T18:29:32.981Z,1.75
2023-04-25T18:34:39.352Z,2.00
2023-04-25T18:39:44.497Z,2.00
2023-04-25T18:44:49.381Z,0.75
2023-04-25T18:49:54.460Z,1.00
2023-04-25T18:54:59.484Z,1.25
2023-04-25T19:00:06.984Z,1.00
2023-04-25T19:05:12.698Z,2.00
2023-04-25T19:10:17.726Z,2.00
2023-04-25T19:15:22.938Z,1.00
2023-04-25T19:20:28.168Z,1.00
2023-04-25T19:25:33.545Z,2.00
2023-04-25T19:30:38.294Z,1.00
2023-04-25T19:35:43.468Z,1.75
2023-04-25T19:40:48.216Z,2.00
2023-04-25T19:45:54.418Z,1.50
2023-04-25T19:50:59.441Z,1.25
2023-04-25T19:56:04.538Z,2.00
2023-04-25T20:01:09.395Z,1.00
2023-04-25T20:06:14.493Z,1.00
2023-04-25T20:11:19.395Z,1.50
2023-04-25T20:16:24.597Z,2.00
2023-04-25T20:21:30.246Z,1.00
2023-04-25T20:26:38.035Z,2.75
2023-04-25T20:31:44.000Z,3.00
2023-04-25T20:36:49.258Z,2.00
2023-04-25T20:41:54.326Z,3.00
2023-04-25T20:46:59.306Z,2.00
2023-04-25T20:52:05.653Z,2.00
2023-04-25T20:57:10.497Z,1.75
2023-04-25T21:02:18.613Z,2.00
2023-04-25T21:07:23.590Z,2.75
2023-04-25T21:12:28.514Z,2.00
2023-04-25T21:17:33.426Z,1.75
2023-04-25T21:22:38.877Z,2.00
2023-04-25T21:27:44.068Z,1.50
2023-04-25T21:32:49.476Z,3.00
2023-04-25T21:37:54.369Z,1.50
2023-04-25T21:42:59.227Z,1.75
2023-04-25T21:48:04.396Z,2.00
2023-04-25T21:53:11.443Z,3.00
2023-04-25T21:58:16.602Z,2.00
2023-04-25T22:03:21.996Z,2.00
2023-04-25T22:08:27.380Z,4.00
2023-04-25T22:13:32.532Z,2.50
2023-04-25T22:18:37.673Z,2.00
2023-04-25T22:23:42.696Z,2.00
2023-04-25T22:28:47.948Z,3.00
2023-04-25T22:33:53.011Z,3.00
2023-04-25T22:38:58.408Z,2.75
2023-04-25T22:44:03.466Z,2.75
2023-04-25T22:49:08.488Z,3.00
2023-04-25T22:54:13.427Z,3.50
2023-04-25T22:59:19.354Z,3.00
2023-04-25T23:04:24.275Z,2.00
2023-04-25T23:09:29.034Z,2.25
2023-04-25T23:14:34.482Z,2.00
2023-04-25T23:19:40.799Z,2.50
2023-04-25T23:24:47.247Z,2.00
2023-04-25T23:29:59.325Z,2.00
2023-04-25T23:35:04.018Z,2.25
2023-04-25T23:40:13.835Z,2.00
2023-04-25T23:45:18.452Z,2.00
2023-04-25T23:50:23.633Z,2.50
2023-04-25T23:55:28.452Z,2.00
